Portada
METAR-TAF:

METAR-TAF

Aeroports :

Tanna, Vanuatu

latitud: 19-27-18S, longitud: 169-13-26E, altitud: 6 m

Observació

L'informe es va fer fa 2 hores i 29 minuts, a les 06:00 UTC
Vent 5 kt del Est
Temperatura 24°C
Humitat 69%
Pressió 1016 hPa
Visibilitat 10 km o més
Escasses núvols a una alçada de 2500 ft

METAR: NVVW 190600Z 09005KT 9999 FEW025 24/18 Q1016

Hora: 19:29 (08:29 UTC)

Pronòstic

L'informe es va fer fa 3 hores i 59 minuts, a les 04:30 UTC
Pronòstic vàlid del 19 a les 06 UTC al 20 a les 06 UTC
Vent 12 kt del Sud-Est
Visibilitat: 9000 m
Núvols disperses a una alçada de 2000 ft
Cel ennuvolat a una alçada de 4000 ft
Cel ennuvolat a una alçada de 1800 ft
Cel cobert a una alçada de 3500 ft
xàfecs de pluja

TAF: NVVW 190430Z 1906/2006 14012KT 9999 SCT020 BKN040 INTER 1906/1912 9000 -SHRA BKN018 OVC035

Observacions i pronòstics meteorològics de més de 4000 aeroports (METAR i TAF).

Les estacions disponibles són els punts grocs i vermells al mapa.

Posi el ratolí al punt desitjat per veure el nom de l'estació.

Feu clic per veure les observacions i els pronòstics meteorològics.

Per canviar el mapa: feu clic els botons verds amb una creu de color negre per apropar; al botó verd amb un guió per allunyar la imatge; o en les fletxes verdes per a mapes adjacents.


METAR-TAF: